createdAt,value
2017-04-06T00:00:40.117Z,0
2017-04-06T00:01:41.355Z,0
2017-04-06T00:02:42.593Z,0
2017-04-06T00:03:43.840Z,0
2017-04-06T00:04:45.077Z,0
2017-04-06T00:05:46.439Z,0
2017-04-06T00:06:47.747Z,0
2017-04-06T00:07:49.119Z,0
2017-04-06T00:08:50.327Z,0
2017-04-06T00:09:51.562Z,0
2017-04-06T00:10:52.801Z,0
2017-04-06T00:11:54.036Z,0
2017-04-06T00:12:55.499Z,0
2017-04-06T00:13:56.754Z,0
2017-04-06T00:14:57.995Z,0
2017-04-06T00:15:59.222Z,0
2017-04-06T00:17:00.463Z,0
2017-04-06T00:18:01.704Z,0
2017-04-06T00:19:02.980Z,0
2017-04-06T00:20:04.200Z,0
2017-04-06T00:21:05.472Z,0
2017-04-06T00:22:06.724Z,0
2017-04-06T00:23:08.018Z,0
2017-04-06T00:24:09.364Z,0
2017-04-06T00:25:10.617Z,0
2017-04-06T00:26:11.855Z,0
2017-04-06T00:27:13.096Z,0
2017-04-06T00:28:14.323Z,0
2017-04-06T00:29:15.552Z,0
2017-04-06T00:30:16.815Z,0
2017-04-06T00:31:18.066Z,0
2017-04-06T00:32:19.418Z,0
2017-04-06T00:33:20.682Z,0
2017-04-06T00:34:21.924Z,0
2017-04-06T00:35:23.162Z,0
2017-04-06T00:36:24.516Z,0
2017-04-06T00:37:25.758Z,0
2017-04-06T00:38:27.035Z,0
2017-04-06T00:39:28.254Z,0
2017-04-06T00:40:29.482Z,0
2017-04-06T00:41:30.846Z,0
2017-04-06T00:42:31.995Z,0
2017-04-06T00:43:33.241Z,0
2017-04-06T00:44:34.495Z,0
2017-04-06T00:45:35.721Z,0
2017-04-06T00:46:37.074Z,0
2017-04-06T00:47:38.353Z,0
2017-04-06T00:48:39.545Z,0
2017-04-06T00:49:40.890Z,0
2017-04-06T00:50:42.227Z,0
2017-04-06T00:51:43.588Z,0
2017-04-06T00:52:44.824Z,0
2017-04-06T00:53:46.064Z,0
2017-04-06T00:54:47.305Z,0
2017-04-06T00:55:48.561Z,0
2017-04-06T00:56:49.793Z,0
2017-04-06T00:57:51.044Z,0
2017-04-06T00:58:52.283Z,0
2017-04-06T00:59:53.521Z,0
2017-04-06T01:00:54.873Z,0
2017-04-06T01:01:56.130Z,0
2017-04-06T01:02:57.460Z,0
2017-04-06T01:03:58.737Z,0
2017-04-06T01:04:59.944Z,0
2017-04-06T01:06:01.183Z,0
2017-04-06T01:07:02.490Z,0
2017-04-06T01:08:03.734Z,0
2017-04-06T01:09:05.030Z,0
2017-04-06T01:10:06.262Z,0
2017-04-06T01:11:07.504Z,0
2017-04-06T01:12:08.741Z,0
2017-04-06T01:13:10.024Z,0
2017-04-06T01:14:11.251Z,0
2017-04-06T01:15:12.501Z,0
2017-04-06T01:16:13.749Z,0
2017-04-06T01:17:14.988Z,0
2017-04-06T01:18:16.227Z,0
2017-04-06T01:19:17.509Z,0
2017-04-06T01:20:18.724Z,0
2017-04-06T01:21:20.085Z,0
2017-04-06T01:22:21.359Z,0
2017-04-06T01:23:22.659Z,0
2017-04-06T01:24:23.905Z,0
2017-04-06T01:25:25.148Z,0
2017-04-06T01:26:26.402Z,0
2017-04-06T01:27:27.732Z,0
2017-04-06T01:28:29.029Z,0
2017-04-06T01:29:30.240Z,0
2017-04-06T01:30:31.478Z,0
2017-04-06T01:31:32.760Z,0
2017-04-06T01:32:33.977Z,0
2017-04-06T01:33:35.246Z,0
2017-04-06T01:34:36.493Z,0
2017-04-06T01:35:37.800Z,0
2017-04-06T01:36:39.052Z,0
2017-04-06T01:37:40.295Z,0
2017-04-06T01:38:41.520Z,0
2017-04-06T01:39:42.845Z,0
2017-04-06T01:40:44.074Z,0
2017-04-06T01:41:45.318Z,0
2017-04-06T01:42:46.549Z,0
2017-04-06T01:43:47.790Z,0
2017-04-06T01:44:49.036Z,0
2017-04-06T01:45:50.298Z,0
2017-04-06T01:46:51.600Z,0
2017-04-06T01:47:52.832Z,0
2017-04-06T01:48:54.072Z,0
2017-04-06T01:49:55.309Z,0
2017-04-06T01:50:56.551Z,0
2017-04-06T01:51:57.789Z,0
2017-04-06T01:52:59.018Z,0
2017-04-06T01:54:00.296Z,0
2017-04-06T01:55:01.577Z,0
2017-04-06T01:56:02.906Z,0
2017-04-06T01:57:04.133Z,0
2017-04-06T01:58:05.374Z,0
2017-04-06T01:59:06.612Z,0
2017-04-06T02:00:07.843Z,0
2017-04-06T02:01:09.102Z,0
2017-04-06T02:02:10.341Z,0
2017-04-06T02:03:11.590Z,0
2017-04-06T02:04:12.868Z,0
2017-04-06T02:05:14.082Z,0
2017-04-06T02:06:15.333Z,0
2017-04-06T02:07:16.565Z,0
2017-04-06T02:08:17.807Z,0
2017-04-06T02:09:19.040Z,0
2017-04-06T02:10:20.274Z,0
2017-04-06T02:11:21.532Z,0
2017-04-06T02:12:22.877Z,0
2017-04-06T02:13:24.104Z,0
2017-04-06T02:14:25.346Z,0
2017-04-06T02:15:26.583Z,0
2017-04-06T02:16:27.837Z,0
2017-04-06T02:17:29.093Z,0
2017-04-06T02:18:30.475Z,0
2017-04-06T02:19:31.789Z,0
2017-04-06T02:20:33.025Z,0
2017-04-06T02:21:34.253Z,0
2017-04-06T02:22:35.488Z,0
2017-04-06T02:23:36.749Z,0
2017-04-06T02:24:38.028Z,0
2017-04-06T02:25:39.230Z,0
2017-04-06T02:26:40.454Z,0
2017-04-06T02:27:41.689Z,0
2017-04-06T02:28:42.924Z,0
2017-04-06T02:29:44.158Z,0
2017-04-06T02:30:45.468Z,0
2017-04-06T02:31:46.719Z,0
2017-04-06T02:32:47.957Z,0
2017-04-06T02:33:49.247Z,0
2017-04-06T02:34:50.444Z,0
2017-04-06T02:35:51.710Z,0
2017-04-06T02:36:53.048Z,0
2017-04-06T02:37:54.297Z,0
2017-04-06T02:38:55.546Z,0
2017-04-06T02:39:56.813Z,0
2017-04-06T02:40:58.049Z,0
2017-04-06T02:41:59.318Z,0
2017-04-06T02:43:00.633Z,0
2017-04-06T02:44:01.857Z,0
2017-04-06T02:45:03.100Z,0
2017-04-06T02:46:04.329Z,0
2017-04-06T02:47:05.588Z,0
2017-04-06T02:48:06.803Z,0
2017-04-06T02:49:08.065Z,0
2017-04-06T02:50:09.285Z,0
2017-04-06T02:51:10.625Z,0
2017-04-06T02:52:11.897Z,0
2017-04-06T02:53:13.147Z,0
2017-04-06T02:54:14.378Z,0
2017-04-06T02:55:15.606Z,0
2017-04-06T02:56:16.866Z,0
2017-04-06T02:57:18.110Z,0
2017-04-06T02:58:19.338Z,0
2017-04-06T02:59:20.577Z,0
2017-04-06T03:00:21.816Z,0
2017-04-06T03:01:23.057Z,0
2017-04-06T03:02:24.296Z,0
2017-04-06T03:03:25.605Z,0
2017-04-06T03:04:26.864Z,0
2017-04-06T03:05:28.110Z,0
2017-04-06T03:06:29.387Z,0
2017-04-06T03:07:30.609Z,0
2017-04-06T03:08:31.843Z,0
2017-04-06T03:09:33.087Z,0
2017-04-06T03:10:34.314Z,0
2017-04-06T03:11:35.551Z,0
2017-04-06T03:12:36.796Z,0
2017-04-06T03:13:38.032Z,0
2017-04-06T03:14:39.276Z,0
2017-04-06T03:15:40.509Z,0
2017-04-06T03:16:41.747Z,0
2017-04-06T03:17:42.976Z,0
2017-04-06T03:18:44.292Z,0
2017-04-06T03:19:45.509Z,0
2017-04-06T03:20:46.767Z,0
2017-04-06T03:21:48.003Z,0
2017-04-06T03:22:49.309Z,0
2017-04-06T03:23:50.526Z,0
2017-04-06T03:24:51.758Z,0
2017-04-06T03:25:52.994Z,0
2017-04-06T03:26:54.229Z,0
2017-04-06T03:27:55.484Z,0
2017-04-06T03:28:56.723Z,0
2017-04-06T03:29:57.936Z,0
2017-04-06T03:30:59.187Z,0
2017-04-06T03:32:00.447Z,0
2017-04-06T03:33:01.674Z,0
2017-04-06T03:34:02.942Z,0
2017-04-06T03:35:04.182Z,0
2017-04-06T03:36:05.427Z,0
2017-04-06T03:37:06.711Z,0
2017-04-06T03:38:07.954Z,0
2017-04-06T03:39:09.261Z,0
2017-04-06T03:40:10.497Z,0
2017-04-06T03:41:11.739Z,0
2017-04-06T03:42:13.015Z,0
2017-04-06T03:43:14.231Z,0
2017-04-06T03:44:15.531Z,0
2017-04-06T03:45:16.754Z,0
2017-04-06T03:46:17.990Z,0
2017-04-06T03:47:19.235Z,0
2017-04-06T03:48:20.470Z,0
2017-04-06T03:49:21.758Z,0
2017-04-06T03:50:23.013Z,0
2017-04-06T03:51:24.240Z,0
2017-04-06T03:52:25.476Z,0
2017-04-06T03:53:26.708Z,0
2017-04-06T03:54:27.945Z,0
2017-04-06T03:55:29.244Z,0
2017-04-06T03:56:30.479Z,0
2017-04-06T03:57:31.752Z,0
2017-04-06T03:58:33.082Z,0
2017-04-06T03:59:34.284Z,0
2017-04-06T04:00:35.523Z,0
2017-04-06T04:01:36.785Z,0
2017-04-06T04:02:38.017Z,0
2017-04-06T04:03:39.270Z,0
2017-04-06T04:04:40.609Z,0
2017-04-06T04:05:41.844Z,0
2017-04-06T04:06:43.067Z,0
2017-04-06T04:07:44.326Z,0
2017-04-06T04:08:45.561Z,0
2017-04-06T04:09:46.806Z,0
2017-04-06T04:10:48.041Z,0
2017-04-06T04:11:49.362Z,0
2017-04-06T04:12:50.604Z,0
2017-04-06T04:13:51.836Z,0
2017-04-06T04:14:53.086Z,0
2017-04-06T04:15:54.328Z,0
2017-04-06T04:16:55.590Z,0
2017-04-06T04:17:56.869Z,0
2017-04-06T04:18:58.107Z,0
2017-04-06T04:19:59.399Z,0
2017-04-06T04:21:00.655Z,0
2017-04-06T04:22:01.874Z,0
2017-04-06T04:23:03.127Z,0
2017-04-06T04:24:04.437Z,0
2017-04-06T04:25:05.651Z,0
2017-04-06T04:26:06.860Z,0
2017-04-06T04:27:08.096Z,0
2017-04-06T04:28:09.359Z,0
2017-04-06T04:29:10.723Z,0
2017-04-06T04:30:12.027Z,0
2017-04-06T04:31:13.315Z,0
2017-04-06T04:32:14.547Z,0
2017-04-06T04:33:15.794Z,0
2017-04-06T04:34:17.015Z,0
2017-04-06T04:35:18.288Z,0
2017-04-06T04:36:19.617Z,0
2017-04-06T04:37:20.897Z,0
2017-04-06T04:38:22.133Z,0
2017-04-06T04:39:23.370Z,0
2017-04-06T04:40:24.622Z,0
2017-04-06T04:41:25.890Z,0
2017-04-06T04:42:27.121Z,0
2017-04-06T04:43:28.362Z,0
2017-04-06T04:44:29.596Z,0
2017-04-06T04:45:30.827Z,0
2017-04-06T04:46:32.074Z,0
2017-04-06T04:47:33.352Z,0
2017-04-06T04:48:34.628Z,5
2017-04-06T04:49:35.878Z,5
2017-04-06T04:50:37.119Z,5
2017-04-06T04:51:38.356Z,0
2017-04-06T04:52:39.591Z,0
2017-04-06T04:53:40.834Z,0
2017-04-06T04:54:42.072Z,0
2017-04-06T04:55:43.312Z,0
2017-04-06T04:56:44.613Z,0
2017-04-06T04:57:45.857Z,5
2017-04-06T04:58:47.108Z,5
2017-04-06T04:59:48.340Z,5
2017-04-06T05:00:49.604Z,10
2017-04-06T05:01:50.828Z,10
2017-04-06T05:02:52.080Z,15
2017-04-06T05:03:53.321Z,15
2017-04-06T05:04:54.544Z,15
2017-04-06T05:05:55.781Z,20
2017-04-06T05:06:57.064Z,20
2017-04-06T05:07:58.367Z,25
2017-04-06T05:08:59.592Z,30
2017-04-06T05:10:00.819Z,35
2017-04-06T05:11:02.133Z,40
2017-04-06T05:12:03.353Z,40
2017-04-06T05:13:04.756Z,40
2017-04-06T05:14:05.997Z,45
2017-04-06T05:15:07.238Z,45
2017-04-06T05:16:08.473Z,50
2017-04-06T05:17:09.723Z,50
2017-04-06T05:18:10.992Z,55
2017-04-06T05:19:12.249Z,55
2017-04-06T05:20:13.521Z,55
2017-04-06T05:21:14.793Z,60
2017-04-06T05:22:16.037Z,70
2017-04-06T05:23:17.286Z,75
2017-04-06T05:24:18.517Z,85
2017-04-06T05:25:19.747Z,90
2017-04-06T05:26:21.022Z,90
2017-04-06T05:27:22.327Z,85
2017-04-06T05:28:23.652Z,80
2017-04-06T05:29:24.874Z,80
2017-04-06T05:30:26.105Z,75
2017-04-06T05:31:27.373Z,75
2017-04-06T05:32:28.608Z,75
2017-04-06T05:33:29.849Z,80
2017-04-06T05:34:31.178Z,80
2017-04-06T05:35:32.388Z,80
2017-04-06T05:36:33.677Z,75
2017-04-06T05:37:34.978Z,70
2017-04-06T05:38:36.210Z,70
2017-04-06T05:39:37.450Z,60
2017-04-06T05:40:38.715Z,60
2017-04-06T05:41:39.962Z,55
2017-04-06T05:42:41.204Z,50
2017-04-06T05:43:42.451Z,55
2017-04-06T05:44:43.699Z,60
2017-04-06T05:45:44.905Z,60
2017-04-06T05:46:46.168Z,60
2017-04-06T05:47:47.413Z,60
2017-04-06T05:48:48.651Z,65
2017-04-06T05:49:49.897Z,65
2017-04-06T05:50:51.120Z,65
2017-04-06T05:51:52.375Z,65
2017-04-06T05:52:53.604Z,70
2017-04-06T05:53:54.943Z,75
2017-04-06T05:54:56.202Z,85
2017-04-06T05:55:57.474Z,95
2017-04-06T05:56:58.716Z,110
2017-04-06T05:57:59.949Z,120
2017-04-06T05:59:01.203Z,130
2017-04-06T06:00:02.419Z,140
2017-04-06T06:01:03.678Z,145
2017-04-06T06:02:04.913Z,145
2017-04-06T06:03:06.188Z,145
2017-04-06T06:04:07.419Z,140
2017-04-06T06:05:08.686Z,155
2017-04-06T06:06:09.907Z,165
2017-04-06T06:07:11.144Z,175
2017-04-06T06:08:12.385Z,185
2017-04-06T06:09:13.626Z,190
2017-04-06T06:10:14.886Z,175
2017-04-06T06:11:16.116Z,155
2017-04-06T06:12:17.391Z,125
2017-04-06T06:13:18.636Z,105
2017-04-06T06:14:19.883Z,95
2017-04-06T06:15:21.144Z,85
2017-04-06T06:16:22.358Z,70
2017-04-06T06:17:23.601Z,65
2017-04-06T06:18:24.861Z,70
2017-04-06T06:19:26.075Z,80
2017-04-06T06:20:27.359Z,90
2017-04-06T06:21:28.597Z,105
2017-04-06T06:22:29.880Z,135
2017-04-06T06:23:31.095Z,165
2017-04-06T06:24:32.330Z,195
2017-04-06T06:25:33.625Z,230
2017-04-06T06:26:34.909Z,255
2017-04-06T06:27:36.151Z,275
2017-04-06T06:28:37.379Z,290
2017-04-06T06:29:38.617Z,315
2017-04-06T06:30:39.850Z,360
2017-04-06T06:31:41.108Z,380
2017-04-06T06:32:42.395Z,390
2017-04-06T06:33:43.615Z,395
2017-04-06T06:34:44.874Z,405
2017-04-06T06:35:46.113Z,430
2017-04-06T06:36:47.562Z,450
2017-04-06T06:37:48.841Z,440
2017-04-06T06:38:50.082Z,430
2017-04-06T06:39:51.328Z,395
2017-04-06T06:40:52.587Z,385
2017-04-06T06:41:53.838Z,395
2017-04-06T06:42:55.180Z,360
2017-04-06T06:43:56.373Z,370
2017-04-06T06:44:57.621Z,345
2017-04-06T06:45:58.863Z,330
2017-04-06T06:47:00.105Z,330
2017-04-06T06:48:01.347Z,315
2017-04-06T06:49:02.612Z,305
2017-04-06T06:50:03.833Z,300
2017-04-06T06:51:05.079Z,305
2017-04-06T06:52:06.308Z,315
2017-04-06T06:53:07.560Z,325
2017-04-06T06:54:08.814Z,340
2017-04-06T06:55:10.042Z,335
2017-04-06T06:56:11.432Z,330
2017-04-06T06:57:12.799Z,335
2017-04-06T06:58:14.026Z,355
2017-04-06T06:59:15.320Z,375
2017-04-06T07:00:16.582Z,420
2017-04-06T07:01:17.840Z,420
2017-04-06T07:02:19.176Z,405
2017-04-06T07:03:20.494Z,405
2017-04-06T07:04:21.791Z,380
2017-04-06T07:05:23.048Z,365
2017-04-06T07:06:24.295Z,390
2017-04-06T07:07:25.530Z,435
2017-04-06T07:08:26.793Z,465
2017-04-06T07:09:28.017Z,450
2017-04-06T07:10:29.258Z,440
2017-04-06T07:11:30.499Z,510
2017-04-06T07:12:31.734Z,435
2017-04-06T07:13:33.007Z,385
2017-04-06T07:14:34.279Z,405
2017-04-06T07:15:35.513Z,460
2017-04-06T07:16:36.755Z,515
2017-04-06T07:17:38.003Z,565
2017-04-06T07:18:39.307Z,625
2017-04-06T07:19:40.566Z,640
2017-04-06T07:20:41.787Z,650
2017-04-06T07:21:43.040Z,610
2017-04-06T07:22:44.370Z,545
2017-04-06T07:23:45.628Z,555
2017-04-06T07:24:46.875Z,560
2017-04-06T07:25:48.116Z,595
2017-04-06T07:26:49.382Z,635
2017-04-06T07:27:50.602Z,690
2017-04-06T07:28:51.853Z,910
2017-04-06T07:29:53.111Z,570
2017-04-06T07:30:54.359Z,545
2017-04-06T07:31:55.625Z,540
2017-04-06T07:32:56.884Z,530
2017-04-06T07:33:58.216Z,545
2017-04-06T07:34:59.648Z,520
2017-04-06T07:36:00.899Z,570
2017-04-06T07:37:02.163Z,855
2017-04-06T07:38:03.387Z,640
2017-04-06T07:39:04.625Z,635
2017-04-06T07:40:05.886Z,675
2017-04-06T07:41:07.133Z,660
2017-04-06T07:42:08.382Z,680
2017-04-06T07:43:09.723Z,725
2017-04-06T07:44:10.962Z,725
2017-04-06T07:45:12.209Z,835
2017-04-06T07:46:13.476Z,815
2017-04-06T07:47:14.734Z,870
2017-04-06T07:48:15.956Z,905
2017-04-06T07:49:17.195Z,930
2017-04-06T07:50:18.428Z,835
2017-04-06T07:51:19.695Z,765
2017-04-06T07:52:20.943Z,765
2017-04-06T07:53:22.207Z,830
2017-04-06T07:54:23.479Z,920
2017-04-06T07:55:24.699Z,985
2017-04-06T07:56:25.978Z,875
2017-04-06T07:57:27.211Z,995
2017-04-06T07:58:28.472Z,860
2017-04-06T07:59:29.738Z,660
2017-04-06T08:00:30.993Z,695
2017-04-06T08:01:32.277Z,840
2017-04-06T08:02:33.527Z,1120
2017-04-06T08:03:34.763Z,1285
2017-04-06T08:04:36.008Z,1020
2017-04-06T08:05:37.272Z,1045
2017-04-06T08:06:38.516Z,1040
2017-04-06T08:07:39.750Z,485
2017-04-06T08:08:41.016Z,465
2017-04-06T08:09:42.256Z,465
2017-04-06T08:10:43.570Z,585
2017-04-06T08:11:44.810Z,605
2017-04-06T08:12:46.029Z,645
2017-04-06T08:13:47.346Z,735
2017-04-06T08:14:48.694Z,1250
2017-04-06T08:15:49.955Z,1275
2017-04-06T08:16:51.217Z,560
2017-04-06T08:17:52.464Z,560
2017-04-06T08:18:53.727Z,440
2017-04-06T08:19:54.996Z,425
2017-04-06T08:20:56.312Z,610
2017-04-06T08:21:57.562Z,1580
2017-04-06T08:22:58.827Z,1630
2017-04-06T08:24:00.067Z,885
2017-04-06T08:25:01.315Z,1550
2017-04-06T08:26:02.544Z,835
2017-04-06T08:27:03.797Z,945
2017-04-06T08:28:05.058Z,790
2017-04-06T08:29:06.299Z,640
2017-04-06T08:30:07.545Z,565
2017-04-06T08:31:08.815Z,545
2017-04-06T08:32:10.041Z,530
2017-04-06T08:33:11.304Z,1190
2017-04-06T08:34:12.544Z,1035
2017-04-06T08:35:13.816Z,1215
2017-04-06T08:36:15.059Z,1300
2017-04-06T08:37:16.288Z,1060
2017-04-06T08:38:17.525Z,835
2017-04-06T08:39:18.870Z,880
2017-04-06T08:40:20.160Z,1065
2017-04-06T08:41:21.439Z,785
2017-04-06T08:42:22.688Z,720
2017-04-06T08:43:23.936Z,660
2017-04-06T08:44:25.191Z,610
2017-04-06T08:45:26.523Z,540
2017-04-06T08:46:27.707Z,485
2017-04-06T08:47:29.003Z,470
2017-04-06T08:48:30.251Z,510
2017-04-06T08:49:31.498Z,535
2017-04-06T08:50:32.755Z,485
2017-04-06T08:51:34.004Z,490
2017-04-06T08:52:35.313Z,490
2017-04-06T08:53:36.579Z,460
2017-04-06T08:54:37.815Z,495
2017-04-06T08:55:39.094Z,495
2017-04-06T08:56:40.358Z,470
2017-04-06T08:57:41.702Z,450
2017-04-06T08:58:42.993Z,465
2017-04-06T08:59:44.250Z,440
2017-04-06T09:00:45.569Z,365
2017-04-06T09:01:46.812Z,325
2017-04-06T09:02:48.082Z,360
2017-04-06T09:03:49.365Z,410
2017-04-06T09:04:50.682Z,445
2017-04-06T09:05:51.961Z,500
2017-04-06T09:06:53.205Z,590
2017-04-06T09:07:54.444Z,705
2017-04-06T09:08:55.697Z,850
2017-04-06T09:09:57.059Z,1175
2017-04-06T09:10:58.341Z,780
2017-04-06T09:11:59.584Z,655
2017-04-06T09:13:00.818Z,650
2017-04-06T09:14:02.061Z,535
2017-04-06T09:15:03.293Z,540
2017-04-06T09:16:04.587Z,535
2017-04-06T09:17:05.834Z,465
2017-04-06T09:18:07.078Z,420
2017-04-06T09:19:08.318Z,430
2017-04-06T09:20:09.584Z,480
2017-04-06T09:21:10.831Z,520
2017-04-06T09:22:12.087Z,590
2017-04-06T09:23:13.320Z,600
2017-04-06T09:24:14.560Z,600
2017-04-06T09:25:15.800Z,595
2017-04-06T09:26:17.043Z,645
2017-04-06T09:27:18.288Z,650
2017-04-06T09:28:19.535Z,665
2017-04-06T09:29:20.815Z,660
2017-04-06T09:30:22.059Z,620
2017-04-06T09:31:23.441Z,665
2017-04-06T09:32:24.697Z,510
2017-04-06T09:33:25.935Z,435
2017-04-06T09:34:27.187Z,390
2017-04-06T09:35:28.444Z,375
2017-04-06T09:36:29.712Z,400
2017-04-06T09:37:30.944Z,415
2017-04-06T09:38:32.194Z,435
2017-04-06T09:39:33.418Z,490
2017-04-06T09:40:34.671Z,555
2017-04-06T09:41:35.965Z,635
2017-04-06T09:42:37.329Z,730
2017-04-06T09:43:38.572Z,825
2017-04-06T09:44:39.873Z,845
2017-04-06T09:45:41.108Z,1035
2017-04-06T09:46:42.488Z,1295
2017-04-06T09:47:43.727Z,955
2017-04-06T09:48:44.962Z,925
2017-04-06T09:49:46.199Z,1020
2017-04-06T09:50:47.458Z,810
2017-04-06T09:51:48.715Z,820
2017-04-06T09:52:49.939Z,2340
2017-04-06T09:53:51.335Z,2505
2017-04-06T09:54:52.666Z,1520
2017-04-06T09:55:53.974Z,1700
2017-04-06T09:56:55.214Z,1725
2017-04-06T09:57:56.467Z,1065
2017-04-06T09:58:57.708Z,925
2017-04-06T09:59:58.960Z,1145
2017-04-06T10:01:00.230Z,805
2017-04-06T10:02:01.455Z,1635
2017-04-06T10:03:02.702Z,770
2017-04-06T10:04:03.949Z,695
2017-04-06T10:05:05.237Z,835
2017-04-06T10:06:06.464Z,2370
2017-04-06T10:07:07.687Z,1015
2017-04-06T10:08:08.932Z,725
2017-04-06T10:09:10.176Z,805
2017-04-06T10:10:11.460Z,875
2017-04-06T10:11:12.688Z,850
2017-04-06T10:12:13.944Z,1095
2017-04-06T10:13:15.220Z,655
2017-04-06T10:14:16.461Z,570
2017-04-06T10:15:17.690Z,550
2017-04-06T10:16:18.940Z,555
2017-04-06T10:17:20.178Z,565
2017-04-06T10:18:21.434Z,560
2017-04-06T10:19:22.774Z,525
2017-04-06T10:20:24.018Z,475
2017-04-06T10:21:25.263Z,470
2017-04-06T10:22:26.503Z,575
2017-04-06T10:23:27.763Z,2795
2017-04-06T10:24:29.006Z,1185
2017-04-06T10:25:30.229Z,1490
2017-04-06T10:26:31.565Z,1270
2017-04-06T10:27:32.811Z,1145
2017-04-06T10:28:34.058Z,1210
2017-04-06T10:29:35.318Z,975
2017-04-06T10:30:36.540Z,1770
2017-04-06T10:31:37.803Z,810
2017-04-06T10:32:39.070Z,665
2017-04-06T10:33:40.337Z,625
2017-04-06T10:34:41.582Z,715
2017-04-06T10:35:42.823Z,635
2017-04-06T10:36:44.071Z,690
2017-04-06T10:37:45.333Z,705
2017-04-06T10:38:46.684Z,695
2017-04-06T10:39:47.967Z,655
2017-04-06T10:40:49.199Z,620
2017-04-06T10:41:50.429Z,590
2017-04-06T10:42:51.681Z,710
2017-04-06T10:43:52.946Z,690
2017-04-06T10:44:54.195Z,680
2017-04-06T10:45:55.485Z,660
2017-04-06T10:46:56.732Z,655
2017-04-06T10:47:57.972Z,635
2017-04-06T10:48:59.392Z,655
2017-04-06T10:50:00.553Z,625
2017-04-06T10:51:01.854Z,595
2017-04-06T10:52:03.098Z,550
2017-04-06T10:53:04.340Z,445
2017-04-06T10:54:05.629Z,465
2017-04-06T10:55:07.182Z,445
2017-04-06T10:56:08.423Z,425
2017-04-06T10:57:09.664Z,425
2017-04-06T10:58:10.926Z,430
2017-04-06T10:59:12.156Z,425
2017-04-06T11:00:13.493Z,420
2017-04-06T11:01:14.736Z,445
2017-04-06T11:02:15.984Z,465
2017-04-06T11:03:17.251Z,525
2017-04-06T11:04:18.490Z,550
2017-04-06T11:05:19.861Z,560
2017-04-06T11:06:21.125Z,575
2017-04-06T11:07:22.357Z,590
2017-04-06T11:08:23.588Z,630
2017-04-06T11:09:24.859Z,655
2017-04-06T11:10:26.131Z,660
2017-04-06T11:11:27.415Z,660
2017-04-06T11:12:28.656Z,625
2017-04-06T11:13:29.903Z,575
2017-04-06T11:14:31.206Z,510
2017-04-06T11:15:32.397Z,490
2017-04-06T11:16:33.669Z,520
2017-04-06T11:17:34.969Z,550
2017-04-06T11:18:36.212Z,595
2017-04-06T11:19:37.451Z,585
2017-04-06T11:20:38.723Z,585
2017-04-06T11:21:39.975Z,605
2017-04-06T11:22:41.288Z,615
2017-04-06T11:23:42.535Z,600
2017-04-06T11:24:43.786Z,580
2017-04-06T11:25:45.027Z,545
2017-04-06T11:26:46.288Z,500
2017-04-06T11:27:47.613Z,485
2017-04-06T11:28:48.879Z,495
2017-04-06T11:29:50.170Z,525
2017-04-06T11:30:51.414Z,595
2017-04-06T11:31:52.684Z,575
2017-04-06T11:32:53.906Z,560
2017-04-06T11:33:55.157Z,525
2017-04-06T11:34:56.399Z,545
2017-04-06T11:35:57.661Z,545
2017-04-06T11:36:58.898Z,540
2017-04-06T11:38:00.137Z,540
2017-04-06T11:39:01.397Z,535
2017-04-06T11:40:02.625Z,490
2017-04-06T11:41:03.924Z,460
2017-04-06T11:42:05.164Z,455
2017-04-06T11:43:06.413Z,510
2017-04-06T11:44:07.662Z,580
2017-04-06T11:45:08.910Z,635
2017-04-06T11:46:10.165Z,625
2017-04-06T11:47:11.456Z,580
2017-04-06T11:48:12.889Z,515
2017-04-06T11:49:14.121Z,490
2017-04-06T11:50:15.466Z,470
2017-04-06T11:51:16.706Z,465
2017-04-06T11:52:17.944Z,470
2017-04-06T11:53:19.280Z,490
2017-04-06T11:54:20.518Z,535
2017-04-06T11:55:21.761Z,555
2017-04-06T11:56:23.046Z,535
2017-04-06T11:57:24.262Z,515
2017-04-06T11:58:25.600Z,500
2017-04-06T11:59:26.848Z,490
2017-04-06T12:00:28.098Z,460
2017-04-06T12:01:29.437Z,425
2017-04-06T12:02:30.684Z,405
2017-04-06T12:03:31.927Z,390
2017-04-06T12:04:33.195Z,375
2017-04-06T12:05:34.422Z,350
2017-04-06T12:06:35.732Z,380
2017-04-06T12:07:36.981Z,395
2017-04-06T12:08:38.231Z,410
2017-04-06T12:09:39.487Z,420
2017-04-06T12:10:40.749Z,430
2017-04-06T12:11:42.042Z,470
2017-04-06T12:12:43.357Z,510
2017-04-06T12:13:44.633Z,500
2017-04-06T12:14:45.865Z,450
2017-04-06T12:15:47.232Z,410
2017-04-06T12:16:48.401Z,380
2017-04-06T12:17:49.692Z,340
2017-04-06T12:18:50.991Z,315
2017-04-06T12:19:52.245Z,315
2017-04-06T12:20:53.615Z,340
2017-04-06T12:21:54.843Z,340
2017-04-06T12:22:56.217Z,365
2017-04-06T12:23:57.479Z,410
2017-04-06T12:24:58.719Z,480
2017-04-06T12:26:00.024Z,530
2017-04-06T12:27:01.404Z,560
2017-04-06T12:28:02.550Z,545
2017-04-06T12:29:03.806Z,505
2017-04-06T12:30:05.052Z,495
2017-04-06T12:31:06.303Z,490
2017-04-06T12:32:07.544Z,475
2017-04-06T12:33:08.790Z,445
2017-04-06T12:34:10.044Z,405
2017-04-06T12:35:11.285Z,375
2017-04-06T12:36:12.543Z,335
2017-04-06T12:37:13.793Z,325
2017-04-06T12:38:15.044Z,310
2017-04-06T12:39:16.277Z,325
2017-04-06T12:40:17.631Z,355
2017-04-06T12:41:18.894Z,360
2017-04-06T12:42:20.237Z,360
2017-04-06T12:43:21.515Z,345
2017-04-06T12:44:22.765Z,370
2017-04-06T12:45:23.999Z,430
2017-04-06T12:46:25.325Z,465
2017-04-06T12:47:26.500Z,485
2017-04-06T12:48:27.753Z,500
2017-04-06T12:49:29.036Z,485
2017-04-06T12:50:30.297Z,465
2017-04-06T12:51:31.535Z,430
2017-04-06T12:52:32.783Z,405
2017-04-06T12:53:34.036Z,395
2017-04-06T12:54:35.384Z,400
2017-04-06T12:55:36.679Z,405
2017-04-06T12:56:37.899Z,405
2017-04-06T12:57:39.138Z,410
2017-04-06T12:58:40.393Z,400
2017-04-06T12:59:41.635Z,380
2017-04-06T13:00:42.889Z,350
2017-04-06T13:01:44.166Z,330
2017-04-06T13:02:45.432Z,310
2017-04-06T13:03:46.653Z,295
2017-04-06T13:04:47.903Z,290
2017-04-06T13:05:49.186Z,285
2017-04-06T13:06:50.409Z,290
2017-04-06T13:07:51.708Z,325
2017-04-06T13:08:52.959Z,375
2017-04-06T13:09:54.222Z,415
2017-04-06T13:10:55.477Z,430
2017-04-06T13:11:56.717Z,435
2017-04-06T13:12:57.959Z,440
2017-04-06T13:13:59.299Z,450
2017-04-06T13:15:00.539Z,465
2017-04-06T13:16:01.795Z,465
2017-04-06T13:17:03.071Z,465
2017-04-06T13:18:04.292Z,475
2017-04-06T13:19:05.599Z,495
2017-04-06T13:20:06.982Z,505
2017-04-06T13:21:08.240Z,505
2017-04-06T13:22:09.493Z,510
2017-04-06T13:23:10.764Z,510
2017-04-06T13:24:11.981Z,500
2017-04-06T13:25:13.303Z,495
2017-04-06T13:26:14.613Z,490
2017-04-06T13:27:15.772Z,480
2017-04-06T13:28:17.013Z,455
2017-04-06T13:29:18.252Z,430
2017-04-06T13:30:19.492Z,405
2017-04-06T13:31:20.770Z,405
2017-04-06T13:32:22.119Z,405
2017-04-06T13:33:23.385Z,410
2017-04-06T13:34:24.613Z,400
2017-04-06T13:35:25.902Z,370
2017-04-06T13:36:27.176Z,355
2017-04-06T13:37:28.436Z,355
2017-04-06T13:38:29.686Z,335
2017-04-06T13:39:30.999Z,315
2017-04-06T13:40:32.225Z,315
2017-04-06T13:41:33.481Z,315
2017-04-06T13:42:34.745Z,310
2017-04-06T13:43:35.997Z,300
2017-04-06T13:44:37.226Z,305
2017-04-06T13:45:38.518Z,310
2017-04-06T13:46:39.767Z,310
2017-04-06T13:47:41.017Z,305
2017-04-06T13:48:42.261Z,305
2017-04-06T13:49:43.540Z,305
2017-04-06T13:50:44.803Z,305
2017-04-06T13:51:46.138Z,300
2017-04-06T13:52:47.387Z,290
2017-04-06T13:53:48.619Z,280
2017-04-06T13:54:49.888Z,285
2017-04-06T13:55:51.164Z,290
2017-04-06T13:56:52.405Z,300
2017-04-06T13:57:53.647Z,310
2017-04-06T13:58:54.889Z,315
2017-04-06T13:59:56.163Z,320
2017-04-06T14:00:57.406Z,330
2017-04-06T14:01:58.655Z,350
2017-04-06T14:02:59.906Z,380
2017-04-06T14:04:01.185Z,380
2017-04-06T14:05:02.404Z,415
2017-04-06T14:06:03.685Z,435
2017-04-06T14:07:04.925Z,445
2017-04-06T14:08:06.198Z,455
2017-04-06T14:09:07.424Z,435
2017-04-06T14:10:08.811Z,425
2017-04-06T14:11:10.039Z,445
2017-04-06T14:12:11.286Z,450
2017-04-06T14:13:12.526Z,465
2017-04-06T14:14:13.766Z,465
2017-04-06T14:15:15.030Z,460
2017-04-06T14:16:16.291Z,445
2017-04-06T14:17:17.524Z,410
2017-04-06T14:18:18.765Z,380
2017-04-06T14:19:20.018Z,370
2017-04-06T14:20:21.265Z,375
2017-04-06T14:21:22.549Z,395
2017-04-06T14:22:23.762Z,405
2017-04-06T14:23:25.092Z,410
2017-04-06T14:24:26.337Z,415
2017-04-06T14:25:27.633Z,415